CYHZ

Halifax / Stanfield International Airport

Halifax, Nova Scotia, Canada
METAR CYHZ 171100Z 11018G26KT 15SM SCT012 OVC110 00/M02 A2976 RMK SC4AC4 SLP086
Observed Flight Rules
Dec-17 @ 11:00 UTC (an hour ago) Visual Flight Rules
Wind Visibility Clouds
110° at 18 knots
 Gusting to 26 knots
15 miles
  • Scattered at 1,200' AGL
  • Overcast at 11,000' AGL
Temperatures Readings
Current 0°C / 32°F
Dewpoint -2°C / 28°F
Humidity 87%
Altimeter 29.76" Hg
Pressure 1008.6 hPa
Elevation 145
METAR CYHZ 171100Z 11018G26KT 15SM SCT012 OVC110 00/M02 A2976 RMK SC4AC4 SLP086
Observed Flight Rules
Dec-17 @ 11:00 UTC
(an hour ago)
VFR
Wind Visibility
110° at 18 knots
 Gusting to 26 knots
15 miles
Clouds
  • Scattered at 1,200' AGL
  • Overcast at 11,000' AGL
Temperature Dewpoint
0°C / 32°F -2°C / 28°F
Humidity Altimeter Pressure
87% 29.76" Hg 1008.6 hPa